Terminal Aerodrome Forecast
Issued by NWS

Home | Current Version | Previous Version | Text Only | Print | Product List | Glossary On
Versions: 1 2 3 4 5 6 7 8 9 10 11 12 13 14 15 16
000
FTUS45 KRIW 192300
TAFCPR
TAF
KCPR 192326Z 2000/2024 29011G19KT P6SM SCT200
     FM200200 27007KT P6SM SCT200
     FM201800 24018G25KT P6SM SCT090 BKN150=

USA.gov is the U.S. government's official web portal to all federal, state and local government web resources and services.